sensor_id;sensor_type;location;lat;lon;timestamp;temperature;humidity
64997;SHT31;51545;51.568;6.998;2023-03-01T00:01:25;0.02;77.64
64997;SHT31;51545;51.568;6.998;2023-03-01T00:03:53;0.00;77.73
64997;SHT31;51545;51.568;6.998;2023-03-01T00:06:19;-0.02;77.80
64997;SHT31;51545;51.568;6.998;2023-03-01T00:08:45;-0.02;77.97
64997;SHT31;51545;51.568;6.998;2023-03-01T00:11:21;-0.03;77.97
64997;SHT31;51545;51.568;6.998;2023-03-01T00:13:50;-0.09;78.04
64997;SHT31;51545;51.568;6.998;2023-03-01T00:16:22;-0.09;78.21
64997;SHT31;51545;51.568;6.998;2023-03-01T00:18:51;-0.11;78.27
64997;SHT31;51545;51.568;6.998;2023-03-01T00:21:19;-0.16;78.49
64997;SHT31;51545;51.568;6.998;2023-03-01T00:23:46;-0.17;78.45
64997;SHT31;51545;51.568;6.998;2023-03-01T00:26:14;-0.21;78.54
64997;SHT31;51545;51.568;6.998;2023-03-01T00:28:41;-0.23;78.80
64997;SHT31;51545;51.568;6.998;2023-03-01T00:31:07;-0.34;79.14
64997;SHT31;51545;51.568;6.998;2023-03-01T00:33:34;-0.30;79.25
64997;SHT31;51545;51.568;6.998;2023-03-01T00:36:00;-0.27;79.21
64997;SHT31;51545;51.568;6.998;2023-03-01T00:38:25;-0.33;79.17
64997;SHT31;51545;51.568;6.998;2023-03-01T00:40:51;-0.31;79.31
64997;SHT31;51545;51.568;6.998;2023-03-01T00:43:16;-0.27;78.99
64997;SHT31;51545;51.568;6.998;2023-03-01T00:45:42;-0.31;79.06
64997;SHT31;51545;51.568;6.998;2023-03-01T00:48:07;-0.34;79.11
64997;SHT31;51545;51.568;6.998;2023-03-01T00:50:33;-0.40;79.39
64997;SHT31;51545;51.568;6.998;2023-03-01T00:52:58;-0.49;79.60
64997;SHT31;51545;51.568;6.998;2023-03-01T00:55:24;-0.52;79.60
64997;SHT31;51545;51.568;6.998;2023-03-01T00:57:49;-0.49;79.81
64997;SHT31;51545;51.568;6.998;2023-03-01T01:00:15;-0.54;79.94
64997;SHT31;51545;51.568;6.998;2023-03-01T01:02:41;-0.55;79.97
64997;SHT31;51545;51.568;6.998;2023-03-01T01:05:07;-0.61;80.03
64997;SHT31;51545;51.568;6.998;2023-03-01T01:07:33;-0.69;80.15
64997;SHT31;51545;51.568;6.998;2023-03-01T01:09:58;-0.76;80.50
64997;SHT31;51545;51.568;6.998;2023-03-01T01:12:24;-0.80;80.53
64997;SHT31;51545;51.568;6.998;2023-03-01T01:14:50;-0.82;80.85
64997;SHT31;51545;51.568;6.998;2023-03-01T01:17:15;-0.85;81.04
64997;SHT31;51545;51.568;6.998;2023-03-01T01:19:40;-0.79;81.13
64997;SHT31;51545;51.568;6.998;2023-03-01T01:22:06;-0.82;81.23
64997;SHT31;51545;51.568;6.998;2023-03-01T01:24:31;-0.80;81.20
64997;SHT31;51545;51.568;6.998;2023-03-01T01:26:57;-0.77;81.13
64997;SHT31;51545;51.568;6.998;2023-03-01T01:29:22;-0.75;80.90
64997;SHT31;51545;51.568;6.998;2023-03-01T01:31:48;-0.76;80.79
64997;SHT31;51545;51.568;6.998;2023-03-01T01:34:18;-0.75;80.61
64997;SHT31;51545;51.568;6.998;2023-03-01T01:36:51;-0.72;80.64
64997;SHT31;51545;51.568;6.998;2023-03-01T01:39:20;-0.70;80.58
64997;SHT31;51545;51.568;6.998;2023-03-01T01:41:46;-0.68;80.32
64997;SHT31;51545;51.568;6.998;2023-03-01T01:44:16;-0.73;80.59
64997;SHT31;51545;51.568;6.998;2023-03-01T01:46:43;-0.79;80.74
64997;SHT31;51545;51.568;6.998;2023-03-01T01:51:51;-0.87;80.43
64997;SHT31;51545;51.568;6.998;2023-03-01T01:54:25;-0.80;80.63
64997;SHT31;51545;51.568;6.998;2023-03-01T01:56:58;-0.82;80.84
64997;SHT31;51545;51.568;6.998;2023-03-01T01:59:27;-0.85;80.47
64997;SHT31;51545;51.568;6.998;2023-03-01T02:01:54;-0.92;80.44
64997;SHT31;51545;51.568;6.998;2023-03-01T02:04:20;-0.87;80.72
64997;SHT31;51545;51.568;6.998;2023-03-01T02:06:51;-0.86;80.59
64997;SHT31;51545;51.568;6.998;2023-03-01T02:09:38;-0.92;80.46
64997;SHT31;51545;51.568;6.998;2023-03-01T02:12:06;-0.94;80.25
64997;SHT31;51545;51.568;6.998;2023-03-01T02:14:32;-0.99;80.54
64997;SHT31;51545;51.568;6.998;2023-03-01T02:16:57;-1.00;80.92
64997;SHT31;51545;51.568;6.998;2023-03-01T02:22:32;-1.00;80.98
64997;SHT31;51545;51.568;6.998;2023-03-01T02:25:02;-1.06;81.12
64997;SHT31;51545;51.568;6.998;2023-03-01T02:27:38;-1.11;81.33
64997;SHT31;51545;51.568;6.998;2023-03-01T02:30:26;-1.11;81.45
64997;SHT31;51545;51.568;6.998;2023-03-01T02:32:52;-1.09;81.57
64997;SHT31;51545;51.568;6.998;2023-03-01T02:35:28;-1.13;81.57
64997;SHT31;51545;51.568;6.998;2023-03-01T02:38:06;-1.16;81.74
64997;SHT31;51545;51.568;6.998;2023-03-01T02:40:34;-1.13;81.55
64997;SHT31;51545;51.568;6.998;2023-03-01T02:43:01;-1.17;81.37
64997;SHT31;51545;51.568;6.998;2023-03-01T02:45:30;-1.23;81.45
64997;SHT31;51545;51.568;6.998;2023-03-01T02:47:56;-1.24;81.52
64997;SHT31;51545;51.568;6.998;2023-03-01T02:55:31;-1.25;81.52
64997;SHT31;51545;51.568;6.998;2023-03-01T02:57:57;-1.24;81.44
64997;SHT31;51545;51.568;6.998;2023-03-01T03:00:28;-1.28;81.70
64997;SHT31;51545;51.568;6.998;2023-03-01T03:03:05;-1.34;81.76
64997;SHT31;51545;51.568;6.998;2023-03-01T03:05:32;-1.32;81.70
64997;SHT31;51545;51.568;6.998;2023-03-01T03:07:59;-1.37;81.84
64997;SHT31;51545;51.568;6.998;2023-03-01T03:10:27;-1.32;81.77
64997;SHT31;51545;51.568;6.998;2023-03-01T03:12:58;-1.45;81.83
64997;SHT31;51545;51.568;6.998;2023-03-01T03:15:26;-1.45;82.12
64997;SHT31;51545;51.568;6.998;2023-03-01T03:17:52;-1.38;81.85
64997;SHT31;51545;51.568;6.998;2023-03-01T03:20:20;-1.38;81.72
64997;SHT31;51545;51.568;6.998;2023-03-01T03:22:49;-1.45;81.91
64997;SHT31;51545;51.568;6.998;2023-03-01T03:25:16;-1.48;81.93
64997;SHT31;51545;51.568;6.998;2023-03-01T03:27:43;-1.49;81.99
64997;SHT31;51545;51.568;6.998;2023-03-01T03:30:10;-1.52;82.14
64997;SHT31;51545;51.568;6.998;2023-03-01T03:32:42;-1.55;82.32
64997;SHT31;51545;51.568;6.998;2023-03-01T03:35:21;-1.56;82.15
64997;SHT31;51545;51.568;6.998;2023-03-01T03:37:49;-1.58;82.49
64997;SHT31;51545;51.568;6.998;2023-03-01T03:43:02;-1.70;82.80
64997;SHT31;51545;51.568;6.998;2023-03-01T03:45:28;-1.66;82.86
64997;SHT31;51545;51.568;6.998;2023-03-01T03:47:54;-1.60;82.74
64997;SHT31;51545;51.568;6.998;2023-03-01T03:50:19;-1.59;82.56
64997;SHT31;51545;51.568;6.998;2023-03-01T03:52:45;-1.58;82.57
64997;SHT31;51545;51.568;6.998;2023-03-01T03:55:11;-1.59;82.49
64997;SHT31;51545;51.568;6.998;2023-03-01T03:57:38;-1.60;82.53
64997;SHT31;51545;51.568;6.998;2023-03-01T04:00:04;-1.59;82.56
64997;SHT31;51545;51.568;6.998;2023-03-01T04:02:40;-1.62;82.56
64997;SHT31;51545;51.568;6.998;2023-03-01T04:05:07;-1.60;82.50
64997;SHT31;51545;51.568;6.998;2023-03-01T04:07:36;-1.69;82.52
64997;SHT31;51545;51.568;6.998;2023-03-01T04:10:03;-1.60;82.69
64997;SHT31;51545;51.568;6.998;2023-03-01T04:12:30;-1.59;82.60
64997;SHT31;51545;51.568;6.998;2023-03-01T04:14:55;-1.62;82.47
64997;SHT31;51545;51.568;6.998;2023-03-01T04:17:21;-1.66;82.47
64997;SHT31;51545;51.568;6.998;2023-03-01T04:19:46;-1.69;82.56
64997;SHT31;51545;51.568;6.998;2023-03-01T04:22:14;-1.59;82.62
64997;SHT31;51545;51.568;6.998;2023-03-01T04:24:43;-1.56;82.22
64997;SHT31;51545;51.568;6.998;2023-03-01T04:27:10;-1.59;82.35
64997;SHT31;51545;51.568;6.998;2023-03-01T04:29:36;-1.65;82.31
64997;SHT31;51545;51.568;6.998;2023-03-01T04:32:01;-1.75;82.59
64997;SHT31;51545;51.568;6.998;2023-03-01T04:34:28;-1.77;82.79
64997;SHT31;51545;51.568;6.998;2023-03-01T04:36:53;-1.79;82.98
64997;SHT31;51545;51.568;6.998;2023-03-01T04:39:19;-1.80;83.10
64997;SHT31;51545;51.568;6.998;2023-03-01T04:41:44;-1.80;83.12
64997;SHT31;51545;51.568;6.998;2023-03-01T04:44:10;-1.76;82.91
64997;SHT31;51545;51.568;6.998;2023-03-01T04:46:35;-1.80;82.94
64997;SHT31;51545;51.568;6.998;2023-03-01T04:49:01;-1.82;82.92
64997;SHT31;51545;51.568;6.998;2023-03-01T04:51:28;-1.79;83.03
64997;SHT31;51545;51.568;6.998;2023-03-01T04:53:54;-1.73;82.98
64997;SHT31;51545;51.568;6.998;2023-03-01T04:56:19;-1.73;82.86
64997;SHT31;51545;51.568;6.998;2023-03-01T04:58:47;-1.85;83.12
64997;SHT31;51545;51.568;6.998;2023-03-01T05:01:20;-1.85;83.11
64997;SHT31;51545;51.568;6.998;2023-03-01T05:03:48;-1.89;83.27
64997;SHT31;51545;51.568;6.998;2023-03-01T05:06:16;-1.91;83.37
64997;SHT31;51545;51.568;6.998;2023-03-01T05:08:43;-1.93;83.49
64997;SHT31;51545;51.568;6.998;2023-03-01T05:11:10;-1.98;83.57
64997;SHT31;51545;51.568;6.998;2023-03-01T05:13:36;-2.03;83.80
64997;SHT31;51545;51.568;6.998;2023-03-01T05:16:03;-2.01;83.84
64997;SHT31;51545;51.568;6.998;2023-03-01T05:18:31;-2.03;83.85
64997;SHT31;51545;51.568;6.998;2023-03-01T05:21:02;-2.05;83.83
64997;SHT31;51545;51.568;6.998;2023-03-01T05:23:31;-2.13;83.87
64997;SHT31;51545;51.568;6.998;2023-03-01T05:25:58;-2.14;84.26
64997;SHT31;51545;51.568;6.998;2023-03-01T05:28:24;-2.13;84.38
64997;SHT31;51545;51.568;6.998;2023-03-01T05:30:51;-2.15;84.45
64997;SHT31;51545;51.568;6.998;2023-03-01T05:33:16;-2.15;84.56
64997;SHT31;51545;51.568;6.998;2023-03-01T05:35:44;-2.17;84.50
64997;SHT31;51545;51.568;6.998;2023-03-01T05:38:11;-2.21;84.64
64997;SHT31;51545;51.568;6.998;2023-03-01T05:40:38;-2.21;84.76
64997;SHT31;51545;51.568;6.998;2023-03-01T05:43:04;-2.25;84.81
64997;SHT31;51545;51.568;6.998;2023-03-01T05:45:30;-2.24;84.90
64997;SHT31;51545;51.568;6.998;2023-03-01T05:48:00;-2.26;84.84
64997;SHT31;51545;51.568;6.998;2023-03-01T05:50:27;-2.30;84.86
64997;SHT31;51545;51.568;6.998;2023-03-01T05:53:04;-2.35;85.08
64997;SHT31;51545;51.568;6.998;2023-03-01T05:55:33;-2.35;85.25
64997;SHT31;51545;51.568;6.998;2023-03-01T05:58:00;-2.40;85.22
64997;SHT31;51545;51.568;6.998;2023-03-01T06:00:27;-2.45;85.56
64997;SHT31;51545;51.568;6.998;2023-03-01T06:02:54;-2.42;85.81
64997;SHT31;51545;51.568;6.998;2023-03-01T06:05:20;-2.44;85.65
64997;SHT31;51545;51.568;6.998;2023-03-01T06:07:46;-2.41;85.71
64997;SHT31;51545;51.568;6.998;2023-03-01T06:10:11;-2.42;85.72
64997;SHT31;51545;51.568;6.998;2023-03-01T06:12:40;-2.35;85.74
64997;SHT31;51545;51.568;6.998;2023-03-01T06:15:08;-2.41;85.77
64997;SHT31;51545;51.568;6.998;2023-03-01T06:17:37;-2.30;85.60
64997;SHT31;51545;51.568;6.998;2023-03-01T06:20:04;-2.21;85.42
64997;SHT31;51545;51.568;6.998;2023-03-01T06:22:31;-2.26;85.40
64997;SHT31;51545;51.568;6.998;2023-03-01T06:24:56;-2.32;85.25
64997;SHT31;51545;51.568;6.998;2023-03-01T06:27:25;-2.31;85.34
64997;SHT31;51545;51.568;6.998;2023-03-01T06:29:51;-2.32;85.32
64997;SHT31;51545;51.568;6.998;2023-03-01T06:32:17;-2.26;85.51
64997;SHT31;51545;51.568;6.998;2023-03-01T06:34:43;-2.30;85.48
64997;SHT31;51545;51.568;6.998;2023-03-01T06:37:10;-2.31;85.49
64997;SHT31;51545;51.568;6.998;2023-03-01T06:39:37;-2.24;85.58
64997;SHT31;51545;51.568;6.998;2023-03-01T06:42:03;-2.21;85.44
64997;SHT31;51545;51.568;6.998;2023-03-01T06:44:29;-2.19;85.30
64997;SHT31;51545;51.568;6.998;2023-03-01T06:46:56;-2.15;85.07
64997;SHT31;51545;51.568;6.998;2023-03-01T06:49:24;-2.11;84.95
64997;SHT31;51545;51.568;6.998;2023-03-01T06:51:50;-2.08;84.88
64997;SHT31;51545;51.568;6.998;2023-03-01T06:54:16;-1.97;84.71
64997;SHT31;51545;51.568;6.998;2023-03-01T06:56:46;-1.87;84.45
64997;SHT31;51545;51.568;6.998;2023-03-01T06:59:12;-1.82;84.06
64997;SHT31;51545;51.568;6.998;2023-03-01T07:01:39;-1.73;83.99
64997;SHT31;51545;51.568;6.998;2023-03-01T07:04:05;-1.63;83.72
64997;SHT31;51545;51.568;6.998;2023-03-01T07:06:31;-1.52;83.48
64997;SHT31;51545;51.568;6.998;2023-03-01T07:08:57;-1.49;83.04
64997;SHT31;51545;51.568;6.998;2023-03-01T07:11:23;-1.44;83.06
64997;SHT31;51545;51.568;6.998;2023-03-01T07:13:49;-1.41;82.64
64997;SHT31;51545;51.568;6.998;2023-03-01T07:16:15;-1.27;82.27
64997;SHT31;51545;51.568;6.998;2023-03-01T07:18:40;-1.24;82.03
64997;SHT31;51545;51.568;6.998;2023-03-01T07:21:07;-1.20;82.16
64997;SHT31;51545;51.568;6.998;2023-03-01T07:23:33;-1.19;81.99
64997;SHT31;51545;51.568;6.998;2023-03-01T07:25:58;-1.13;82.10
64997;SHT31;51545;51.568;6.998;2023-03-01T07:28:24;-1.07;81.64
64997;SHT31;51545;51.568;6.998;2023-03-01T07:30:50;-0.92;81.23
64997;SHT31;51545;51.568;6.998;2023-03-01T07:33:16;-0.83;80.93
64997;SHT31;51545;51.568;6.998;2023-03-01T07:35:41;-0.70;80.70
64997;SHT31;51545;51.568;6.998;2023-03-01T07:38:07;-0.79;80.45
64997;SHT31;51545;51.568;6.998;2023-03-01T07:40:32;-0.69;80.15
64997;SHT31;51545;51.568;6.998;2023-03-01T07:42:59;-0.64;80.11
64997;SHT31;51545;51.568;6.998;2023-03-01T07:45:24;-0.68;80.25
64997;SHT31;51545;51.568;6.998;2023-03-01T07:47:51;-0.54;80.07
64997;SHT31;51545;51.568;6.998;2023-03-01T07:50:17;-0.42;79.27
64997;SHT31;51545;51.568;6.998;2023-03-01T07:52:45;-0.31;79.01
64997;SHT31;51545;51.568;6.998;2023-03-01T07:55:11;-0.27;78.66
64997;SHT31;51545;51.568;6.998;2023-03-01T07:57:37;-0.19;78.57
64997;SHT31;51545;51.568;6.998;2023-03-01T08:00:03;-0.16;77.69
64997;SHT31;51545;51.568;6.998;2023-03-01T08:02:29;-0.06;77.76
64997;SHT31;51545;51.568;6.998;2023-03-01T08:04:54;-0.03;77.56
64997;SHT31;51545;51.568;6.998;2023-03-01T08:07:20;0.08;77.94
64997;SHT31;51545;51.568;6.998;2023-03-01T08:09:45;0.14;77.33
64997;SHT31;51545;51.568;6.998;2023-03-01T08:12:11;0.18;77.80
64997;SHT31;51545;51.568;6.998;2023-03-01T08:14:37;0.26;77.11
64997;SHT31;51545;51.568;6.998;2023-03-01T08:17:03;0.29;76.48
64997;SHT31;51545;51.568;6.998;2023-03-01T08:19:29;0.38;76.43
64997;SHT31;51545;51.568;6.998;2023-03-01T08:21:54;0.50;75.72
64997;SHT31;51545;51.568;6.998;2023-03-01T08:24:23;0.55;75.74
64997;SHT31;51545;51.568;6.998;2023-03-01T08:26:49;0.63;76.06
64997;SHT31;51545;51.568;6.998;2023-03-01T08:29:14;0.70;75.87
64997;SHT31;51545;51.568;6.998;2023-03-01T08:31:40;0.81;75.77
64997;SHT31;51545;51.568;6.998;2023-03-01T08:34:07;0.83;75.34
64997;SHT31;51545;51.568;6.998;2023-03-01T08:36:35;0.90;75.54
64997;SHT31;51545;51.568;6.998;2023-03-01T08:39:03;1.02;75.24
64997;SHT31;51545;51.568;6.998;2023-03-01T08:41:30;1.12;74.98
64997;SHT31;51545;51.568;6.998;2023-03-01T08:43:55;1.24;74.79
64997;SHT31;51545;51.568;6.998;2023-03-01T08:46:42;1.31;74.16
64997;SHT31;51545;51.568;6.998;2023-03-01T08:49:09;1.36;73.41
64997;SHT31;51545;51.568;6.998;2023-03-01T08:51:37;1.52;73.58
64997;SHT31;51545;51.568;6.998;2023-03-01T08:54:06;1.60;73.70
64997;SHT31;51545;51.568;6.998;2023-03-01T08:56:35;1.63;72.71
64997;SHT31;51545;51.568;6.998;2023-03-01T08:59:01;2.47;81.42
64997;SHT31;51545;51.568;6.998;2023-03-01T09:01:26;2.43;73.14
64997;SHT31;51545;51.568;6.998;2023-03-01T09:03:52;2.77;74.68
64997;SHT31;51545;51.568;6.998;2023-03-01T09:06:17;3.42;71.71
64997;SHT31;51545;51.568;6.998;2023-03-01T09:08:44;4.27;71.01
64997;SHT31;51545;51.568;6.998;2023-03-01T09:11:13;3.20;66.88
64997;SHT31;51545;51.568;6.998;2023-03-01T09:13:41;2.84;67.78
64997;SHT31;51545;51.568;6.998;2023-03-01T09:16:08;2.50;68.26
64997;SHT31;51545;51.568;6.998;2023-03-01T09:18:35;2.50;68.62
64997;SHT31;51545;51.568;6.998;2023-03-01T09:21:04;2.47;68.84
64997;SHT31;51545;51.568;6.998;2023-03-01T09:23:32;2.58;68.40
64997;SHT31;51545;51.568;6.998;2023-03-01T09:25:59;2.66;68.70
64997;SHT31;51545;51.568;6.998;2023-03-01T09:28:25;2.73;68.18
64997;SHT31;51545;51.568;6.998;2023-03-01T09:30:50;2.84;68.50
64997;SHT31;51545;51.568;6.998;2023-03-01T09:33:16;2.84;67.63
64997;SHT31;51545;51.568;6.998;2023-03-01T09:35:41;2.83;67.56
64997;SHT31;51545;51.568;6.998;2023-03-01T09:38:11;2.88;67.80
64997;SHT31;51545;51.568;6.998;2023-03-01T09:40:41;3.08;67.39
64997;SHT31;51545;51.568;6.998;2023-03-01T09:43:13;3.13;66.89
64997;SHT31;51545;51.568;6.998;2023-03-01T09:45:59;3.33;66.63
64997;SHT31;51545;51.568;6.998;2023-03-01T09:48:37;3.44;66.07
64997;SHT31;51545;51.568;6.998;2023-03-01T09:51:08;3.64;65.56
64997;SHT31;51545;51.568;6.998;2023-03-01T09:53:42;4.30;64.81
64997;SHT31;51545;51.568;6.998;2023-03-01T10:07:21;7.01;53.92
64997;SHT31;51545;51.568;6.998;2023-03-01T10:10:06;6.88;54.22
64997;SHT31;51545;51.568;6.998;2023-03-01T10:12:35;7.38;53.78
64997;SHT31;51545;51.568;6.998;2023-03-01T10:15:07;7.87;53.18
64997;SHT31;51545;51.568;6.998;2023-03-01T10:22:46;7.83;51.66
64997;SHT31;51545;51.568;6.998;2023-03-01T10:25:15;7.41;53.44
64997;SHT31;51545;51.568;6.998;2023-03-01T10:27:54;7.14;52.75
64997;SHT31;51545;51.568;6.998;2023-03-01T10:30:38;6.58;54.41
64997;SHT31;51545;51.568;6.998;2023-03-01T10:33:23;6.46;55.42
64997;SHT31;51545;51.568;6.998;2023-03-01T10:35:54;6.85;54.32
64997;SHT31;51545;51.568;6.998;2023-03-01T10:38:20;6.56;55.17
64997;SHT31;51545;51.568;6.998;2023-03-01T10:40:53;6.03;56.83
64997;SHT31;51545;51.568;6.998;2023-03-01T10:43:24;5.89;57.17
64997;SHT31;51545;51.568;6.998;2023-03-01T10:45:52;5.92;57.45
64997;SHT31;51545;51.568;6.998;2023-03-01T10:48:25;6.27;57.58
64997;SHT31;51545;51.568;6.998;2023-03-01T10:53:29;6.85;54.87
64997;SHT31;51545;51.568;6.998;2023-03-01T10:56:08;7.10;55.69
64997;SHT31;51545;51.568;6.998;2023-03-01T10:58:37;6.99;54.58
64997;SHT31;51545;51.568;6.998;2023-03-01T11:01:24;7.16;53.37
64997;SHT31;51545;51.568;6.998;2023-03-01T11:06:34;8.38;52.60
64997;SHT31;51545;51.568;6.998;2023-03-01T11:09:14;8.25;51.53
64997;SHT31;51545;51.568;6.998;2023-03-01T11:11:40;9.01;50.64
64997;SHT31;51545;51.568;6.998;2023-03-01T11:14:12;10.62;48.29
64997;SHT31;51545;51.568;6.998;2023-03-01T11:16:42;10.87;45.51
64997;SHT31;51545;51.568;6.998;2023-03-01T11:24:40;11.21;44.57
64997;SHT31;51545;51.568;6.998;2023-03-01T11:27:31;11.26;43.97
64997;SHT31;51545;51.568;6.998;2023-03-01T11:33:08;10.77;44.38
64997;SHT31;51545;51.568;6.998;2023-03-01T11:35:37;11.87;42.54
64997;SHT31;51545;51.568;6.998;2023-03-01T11:38:28;12.40;41.74
64997;SHT31;51545;51.568;6.998;2023-03-01T11:41:05;12.05;43.00
64997;SHT31;51545;51.568;6.998;2023-03-01T12:04:36;13.71;40.66
64997;SHT31;51545;51.568;6.998;2023-03-01T12:18:12;13.32;39.91
64997;SHT31;51545;51.568;6.998;2023-03-01T12:42:49;11.88;40.97
64997;SHT31;51545;51.568;6.998;2023-03-01T12:50:53;12.09;41.45
64997;SHT31;51545;51.568;6.998;2023-03-01T12:53:26;11.87;40.37
64997;SHT31;51545;51.568;6.998;2023-03-01T12:56:00;11.87;41.38
64997;SHT31;51545;51.568;6.998;2023-03-01T12:58:35;11.83;40.34
64997;SHT31;51545;51.568;6.998;2023-03-01T13:11:57;12.84;39.81
64997;SHT31;51545;51.568;6.998;2023-03-01T13:16:51;13.54;39.65
64997;SHT31;51545;51.568;6.998;2023-03-01T13:19:19;13.95;37.79
64997;SHT31;51545;51.568;6.998;2023-03-01T13:21:47;14.26;36.83
64997;SHT31;51545;51.568;6.998;2023-03-01T13:29:49;13.54;38.06
64997;SHT31;51545;51.568;6.998;2023-03-01T13:37:48;14.00;38.66
64997;SHT31;51545;51.568;6.998;2023-03-01T13:42:46;13.76;38.28
64997;SHT31;51545;51.568;6.998;2023-03-01T13:45:23;12.64;40.73
64997;SHT31;51545;51.568;6.998;2023-03-01T13:48:09;13.71;38.76
64997;SHT31;51545;51.568;6.998;2023-03-01T13:51:21;13.44;38.72
64997;SHT31;51545;51.568;6.998;2023-03-01T13:53:43;14.00;39.32
64997;SHT31;51545;51.568;6.998;2023-03-01T13:56:27;14.22;38.54
64997;SHT31;51545;51.568;6.998;2023-03-01T13:58:59;14.16;38.14
64997;SHT31;51545;51.568;6.998;2023-03-01T14:01:36;13.91;38.99
64997;SHT31;51545;51.568;6.998;2023-03-01T14:04:02;13.56;38.35
64997;SHT31;51545;51.568;6.998;2023-03-01T14:06:43;12.64;38.85
64997;SHT31;51545;51.568;6.998;2023-03-01T14:09:18;12.76;40.19
64997;SHT31;51545;51.568;6.998;2023-03-01T14:11:55;13.42;52.11
64997;SHT31;51545;51.568;6.998;2023-03-01T14:14:43;12.31;41.65
64997;SHT31;51545;51.568;6.998;2023-03-01T14:19:40;11.42;41.59
64997;SHT31;51545;51.568;6.998;2023-03-01T14:24:48;11.69;42.95
64997;SHT31;51545;51.568;6.998;2023-03-01T14:27:15;12.20;41.24
64997;SHT31;51545;51.568;6.998;2023-03-01T14:29:42;12.50;41.50
64997;SHT31;51545;51.568;6.998;2023-03-01T14:34:43;11.45;40.60
64997;SHT31;51545;51.568;6.998;2023-03-01T14:39:49;10.55;43.41
64997;SHT31;51545;51.568;6.998;2023-03-01T14:42:15;12.64;40.70
64997;SHT31;51545;51.568;6.998;2023-03-01T14:44:44;12.32;41.24
64997;SHT31;51545;51.568;6.998;2023-03-01T14:47:14;13.32;38.65
64997;SHT31;51545;51.568;6.998;2023-03-01T14:49:45;12.66;39.66
64997;SHT31;51545;51.568;6.998;2023-03-01T14:52:20;11.63;41.28
64997;SHT31;51545;51.568;6.998;2023-03-01T14:54:49;11.77;41.73
64997;SHT31;51545;51.568;6.998;2023-03-01T14:57:21;11.58;42.02
64997;SHT31;51545;51.568;6.998;2023-03-01T14:59:52;12.33;41.69
64997;SHT31;51545;51.568;6.998;2023-03-01T15:02:21;12.84;39.70
64997;SHT31;51545;51.568;6.998;2023-03-01T15:04:50;12.53;40.15
64997;SHT31;51545;51.568;6.998;2023-03-01T15:07:21;12.55;40.15
64997;SHT31;51545;51.568;6.998;2023-03-01T15:09:51;11.77;41.24
64997;SHT31;51545;51.568;6.998;2023-03-01T15:14:52;12.39;40.73
64997;SHT31;51545;51.568;6.998;2023-03-01T15:19:57;12.18;41.03
64997;SHT31;51545;51.568;6.998;2023-03-01T15:22:24;11.80;41.59
64997;SHT31;51545;51.568;6.998;2023-03-01T15:24:51;12.26;41.00
64997;SHT31;51545;51.568;6.998;2023-03-01T15:27:23;11.49;41.61
64997;SHT31;51545;51.568;6.998;2023-03-01T15:29:54;12.17;40.83
64997;SHT31;51545;51.568;6.998;2023-03-01T15:32:31;12.14;41.02
64997;SHT31;51545;51.568;6.998;2023-03-01T15:34:58;12.09;41.15
64997;SHT31;51545;51.568;6.998;2023-03-01T15:40:20;11.67;42.31
64997;SHT31;51545;51.568;6.998;2023-03-01T15:42:49;10.95;43.15
64997;SHT31;51545;51.568;6.998;2023-03-01T15:47:52;10.98;43.53
64997;SHT31;51545;51.568;6.998;2023-03-01T15:50:35;10.95;43.90
64997;SHT31;51545;51.568;6.998;2023-03-01T15:53:05;10.83;44.92
64997;SHT31;51545;51.568;6.998;2023-03-01T15:55:37;11.26;44.33
64997;SHT31;51545;51.568;6.998;2023-03-01T15:58:16;10.42;44.99
64997;SHT31;51545;51.568;6.998;2023-03-01T16:00:46;10.52;45.67
64997;SHT31;51545;51.568;6.998;2023-03-01T16:03:14;10.75;43.60
64997;SHT31;51545;51.568;6.998;2023-03-01T16:05:47;10.66;43.58
64997;SHT31;51545;51.568;6.998;2023-03-01T16:08:15;9.14;45.56
64997;SHT31;51545;51.568;6.998;2023-03-01T16:10:41;9.56;45.94
64997;SHT31;51545;51.568;6.998;2023-03-01T16:13:13;9.08;46.98
64997;SHT31;51545;51.568;6.998;2023-03-01T16:15:40;9.10;48.02
64997;SHT31;51545;51.568;6.998;2023-03-01T16:18:12;8.74;49.24
64997;SHT31;51545;51.568;6.998;2023-03-01T16:20:39;8.37;49.74
64997;SHT31;51545;51.568;6.998;2023-03-01T16:23:06;8.48;49.75
64997;SHT31;51545;51.568;6.998;2023-03-01T16:25:34;8.39;49.57
64997;SHT31;51545;51.568;6.998;2023-03-01T16:28:00;7.92;50.92
64997;SHT31;51545;51.568;6.998;2023-03-01T16:30:30;8.11;50.22
64997;SHT31;51545;51.568;6.998;2023-03-01T16:32:55;8.22;49.82
64997;SHT31;51545;51.568;6.998;2023-03-01T16:35:21;7.99;50.58
64997;SHT31;51545;51.568;6.998;2023-03-01T16:37:48;7.80;49.94
64997;SHT31;51545;51.568;6.998;2023-03-01T16:42:51;7.55;51.31
64997;SHT31;51545;51.568;6.998;2023-03-01T16:45:17;7.52;51.88
64997;SHT31;51545;51.568;6.998;2023-03-01T16:47:43;7.34;52.09
64997;SHT31;51545;51.568;6.998;2023-03-01T16:50:09;7.13;53.11
64997;SHT31;51545;51.568;6.998;2023-03-01T16:52:35;7.06;52.21
64997;SHT31;51545;51.568;6.998;2023-03-01T16:55:04;6.90;52.78
64997;SHT31;51545;51.568;6.998;2023-03-01T16:57:35;6.92;52.81
64997;SHT31;51545;51.568;6.998;2023-03-01T17:00:05;6.92;53.03
64997;SHT31;51545;51.568;6.998;2023-03-01T17:02:33;6.93;52.77
64997;SHT31;51545;51.568;6.998;2023-03-01T17:04:59;6.68;53.61
64997;SHT31;51545;51.568;6.998;2023-03-01T17:07:24;6.72;53.71
64997;SHT31;51545;51.568;6.998;2023-03-01T17:09:50;6.72;53.40
64997;SHT31;51545;51.568;6.998;2023-03-01T17:12:15;6.62;53.66
64997;SHT31;51545;51.568;6.998;2023-03-01T17:14:41;6.48;53.86
64997;SHT31;51545;51.568;6.998;2023-03-01T17:17:08;6.18;54.12
64997;SHT31;51545;51.568;6.998;2023-03-01T17:19:35;6.07;54.84
64997;SHT31;51545;51.568;6.998;2023-03-01T17:22:05;6.05;54.67
64997;SHT31;51545;51.568;6.998;2023-03-01T17:24:34;5.88;56.09
64997;SHT31;51545;51.568;6.998;2023-03-01T17:27:00;5.92;55.84
64997;SHT31;51545;51.568;6.998;2023-03-01T17:29:26;5.68;56.05
64997;SHT31;51545;51.568;6.998;2023-03-01T17:31:51;5.82;56.03
64997;SHT31;51545;51.568;6.998;2023-03-01T17:34:18;5.65;56.36
64997;SHT31;51545;51.568;6.998;2023-03-01T17:36:44;5.67;56.29
64997;SHT31;51545;51.568;6.998;2023-03-01T17:39:10;5.55;56.64
64997;SHT31;51545;51.568;6.998;2023-03-01T17:41:36;5.69;56.15
64997;SHT31;51545;51.568;6.998;2023-03-01T17:44:01;5.69;56.67
64997;SHT31;51545;51.568;6.998;2023-03-01T17:46:27;5.71;56.32
64997;SHT31;51545;51.568;6.998;2023-03-01T17:48:52;5.65;56.40
64997;SHT31;51545;51.568;6.998;2023-03-01T17:51:18;5.64;56.54
64997;SHT31;51545;51.568;6.998;2023-03-01T17:53:44;5.41;57.25
64997;SHT31;51545;51.568;6.998;2023-03-01T17:56:09;5.06;58.41
64997;SHT31;51545;51.568;6.998;2023-03-01T17:58:35;5.02;58.68
64997;SHT31;51545;51.568;6.998;2023-03-01T18:01:12;5.16;58.34
64997;SHT31;51545;51.568;6.998;2023-03-01T18:03:40;5.16;58.48
64997;SHT31;51545;51.568;6.998;2023-03-01T18:06:13;5.20;58.36
64997;SHT31;51545;51.568;6.998;2023-03-01T18:08:44;5.19;58.08
64997;SHT31;51545;51.568;6.998;2023-03-01T18:11:11;5.19;57.57
64997;SHT31;51545;51.568;6.998;2023-03-01T18:13:37;5.15;58.10
64997;SHT31;51545;51.568;6.998;2023-03-01T18:16:07;5.12;58.11
64997;SHT31;51545;51.568;6.998;2023-03-01T18:18:38;5.03;57.95